Time,TemperatureF,DewpointF,PressureIn,WindDirection,WindDirectionDegrees,WindSpeedMPH,WindSpeedGustMPH,Humidity,HourlyPrecipIn,Conditions,Clouds,dailyrainin,SolarRadiationWatts/m^2,SoftwareType,DateUTC
2013-01-13 00:02:00,8.0,4.0,-100.00,NNW,337,0.0,2.0,82,0.00,,,0.00,0.000000,,2013-01-13 08:02:00,
2013-01-13 00:11:00,8.0,4.0,-100.00,NNW,337,0.0,2.0,82,0.00,,,0.00,0.000000,,2013-01-13 08:11:00,
2013-01-13 00:22:00,8.0,4.0,-100.00,NNW,337,0.0,2.0,82,0.00,,,0.00,0.000000,,2013-01-13 08:22:00,
2013-01-13 00:32:00,8.0,4.0,-100.00,NNW,337,0.0,2.0,82,0.00,,,0.00,0.000000,,2013-01-13 08:32:00,
2013-01-13 00:52:00,9.0,4.0,-100.00,NNW,337,1.0,2.0,79,0.00,,,0.00,0.000000,,2013-01-13 08:52:00,
2013-01-13 01:02:00,9.0,4.0,-100.00,NNW,337,1.0,2.0,79,0.00,,,0.00,0.000000,,2013-01-13 09:02:00,
2013-01-13 01:12:00,9.0,4.0,-100.00,NNW,337,1.0,2.0,79,0.00,,,0.00,0.000000,,2013-01-13 09:12:00,
2013-01-13 01:22:00,9.0,4.0,-100.00,NNW,337,1.0,2.0,79,0.00,,,0.00,0.000000,,2013-01-13 09:22:00,
2013-01-13 01:32:00,9.0,4.0,-100.00,NNW,337,1.0,2.0,79,0.00,,,0.00,0.000000,,2013-01-13 09:32:00,
2013-01-13 01:52:00,11.0,5.0,-100.00,NNW,337,0.0,2.0,77,0.00,,,0.00,0.000000,,2013-01-13 09:52:00,
2013-01-13 02:02:00,11.0,5.0,-100.00,NNW,337,0.0,2.0,77,0.00,,,0.00,0.000000,,2013-01-13 10:02:00,
2013-01-13 02:12:00,11.0,5.0,-100.00,NNW,337,0.0,2.0,77,0.00,,,0.00,0.000000,,2013-01-13 10:12:00,
2013-01-13 02:22:00,11.0,5.0,-100.00,NNW,337,0.0,2.0,77,0.00,,,0.00,0.000000,,2013-01-13 10:22:00,
2013-01-13 02:32:00,11.0,5.0,-100.00,NNW,337,0.0,2.0,77,0.00,,,0.00,0.000000,,2013-01-13 10:32:00,
2013-01-13 02:52:00,12.0,4.0,-100.00,NNW,337,1.0,2.0,71,0.00,,,0.00,0.000000,,2013-01-13 10:52:00,
2013-01-13 03:02:00,12.0,4.0,-100.00,NNW,337,1.0,2.0,71,0.00,,,0.00,0.000000,,2013-01-13 11:02:00,
2013-01-13 03:12:00,12.0,4.0,-100.00,NNW,337,1.0,2.0,71,0.00,,,0.00,0.000000,,2013-01-13 11:12:00,
2013-01-13 03:22:00,12.0,4.0,-100.00,NNW,337,1.0,2.0,71,0.00,,,0.00,0.000000,,2013-01-13 11:22:00,
2013-01-13 03:32:00,12.0,4.0,-100.00,NNW,337,1.0,2.0,71,0.00,,,0.00,0.000000,,2013-01-13 11:32:00,
2013-01-13 03:52:00,12.0,2.0,-100.00,NNW,337,1.0,3.0,62,0.00,,,0.00,0.000000,,2013-01-13 11:52:00,
2013-01-13 04:03:00,12.0,2.0,-100.00,NNW,337,1.0,3.0,62,0.00,,,0.00,0.000000,,2013-01-13 12:03:00,
2013-01-13 04:12:00,12.0,2.0,-100.00,NNW,337,1.0,3.0,62,0.00,,,0.00,0.000000,,2013-01-13 12:12:00,
2013-01-13 04:22:00,12.0,2.0,-100.00,NNW,337,1.0,3.0,62,0.00,,,0.00,0.000000,,2013-01-13 12:22:00,
2013-01-13 04:32:00,12.0,2.0,-100.00,NNW,337,1.0,3.0,62,0.00,,,0.00,0.000000,,2013-01-13 12:32:00,
2013-01-13 04:53:00,11.0,2.0,-100.00,NNW,337,1.0,3.0,65,0.00,,,0.00,0.000000,,2013-01-13 12:53:00,
2013-01-13 05:02:00,11.0,2.0,-100.00,NNW,337,1.0,3.0,65,0.00,,,0.00,0.000000,,2013-01-13 13:02:00,
2013-01-13 05:12:00,11.0,2.0,-100.00,NNW,337,1.0,3.0,65,0.00,,,0.00,0.000000,,2013-01-13 13:12:00,
2013-01-13 05:22:00,11.0,2.0,-100.00,NNW,337,1.0,3.0,65,0.00,,,0.00,0.000000,,2013-01-13 13:22:00,
2013-01-13 05:32:00,11.0,2.0,-100.00,NNW,337,1.0,3.0,65,0.00,,,0.00,0.000000,,2013-01-13 13:32:00,
2013-01-13 05:53:00,11.0,3.0,-100.00,NNW,337,2.0,3.0,70,0.00,,,0.00,0.000000,,2013-01-13 13:53:00,
2013-01-13 06:02:00,11.0,3.0,-100.00,NNW,337,2.0,3.0,70,0.00,,,0.00,0.000000,,2013-01-13 14:02:00,
2013-01-13 06:12:00,11.0,3.0,-100.00,NNW,337,2.0,3.0,70,0.00,,,0.00,0.000000,,2013-01-13 14:12:00,
2013-01-13 06:22:00,11.0,3.0,-100.00,NNW,337,2.0,3.0,70,0.00,,,0.00,0.000000,,2013-01-13 14:22:00,
2013-01-13 06:32:00,11.0,3.0,-100.00,NNW,337,2.0,3.0,70,0.00,,,0.00,0.000000,,2013-01-13 14:32:00,
2013-01-13 07:03:00,10.0,3.0,-100.00,NNW,337,1.0,2.0,72,0.00,,,0.00,0.000000,,2013-01-13 15:03:00,
2013-01-13 07:12:00,10.0,3.0,-100.00,NNW,337,1.0,2.0,72,0.00,,,0.00,0.000000,,2013-01-13 15:12:00,
2013-01-13 07:22:00,10.0,3.0,-100.00,NNW,337,1.0,2.0,72,0.00,,,0.00,0.000000,,2013-01-13 15:22:00,
2013-01-13 07:33:00,10.0,3.0,-100.00,NNW,337,1.0,2.0,72,0.00,,,0.00,0.000000,,2013-01-13 15:33:00,
2013-01-13 07:53:00,8.0,3.0,-100.00,NNW,337,1.0,2.0,79,0.00,,,0.00,0.000000,,2013-01-13 15:53:00,
2013-01-13 08:03:00,8.0,3.0,-100.00,NNW,337,1.0,2.0,79,0.00,,,0.00,0.000000,,2013-01-13 16:03:00,
2013-01-13 08:12:00,8.0,3.0,-100.00,NNW,337,1.0,2.0,79,0.00,,,0.00,0.000000,,2013-01-13 16:12:00,
2013-01-13 08:22:00,8.0,3.0,-100.00,NNW,337,1.0,2.0,79,0.00,,,0.00,0.000000,,2013-01-13 16:22:00,
2013-01-13 08:33:00,8.0,3.0,-100.00,NNW,337,1.0,2.0,79,0.00,,,0.00,0.000000,,2013-01-13 16:33:00,
2013-01-13 08:53:00,9.0,5.0,-100.00,NNW,337,1.0,2.0,84,0.00,,,0.00,8.000000,,2013-01-13 16:53:00,
2013-01-13 09:03:00,9.0,5.0,-100.00,NNW,337,1.0,2.0,84,0.00,,,0.00,8.000000,,2013-01-13 17:03:00,
2013-01-13 09:12:00,9.0,5.0,-100.00,NNW,337,1.0,2.0,84,0.00,,,0.00,8.000000,,2013-01-13 17:12:00,
2013-01-13 09:22:00,9.0,5.0,-100.00,NNW,337,1.0,2.0,84,0.00,,,0.00,8.000000,,2013-01-13 17:22:00,
2013-01-13 09:32:00,9.0,5.0,-100.00,NNW,337,1.0,2.0,84,0.00,,,0.00,8.000000,,2013-01-13 17:32:00,
2013-01-13 09:53:00,12.0,7.0,-100.00,NNW,337,0.0,3.0,79,0.00,,,0.00,24.000000,,2013-01-13 17:53:00,
2013-01-13 10:03:00,12.0,7.0,-100.00,NNW,337,0.0,3.0,79,0.00,,,0.00,24.000000,,2013-01-13 18:03:00,
2013-01-13 10:12:00,12.0,7.0,-100.00,NNW,337,0.0,3.0,79,0.00,,,0.00,24.000000,,2013-01-13 18:12:00,
2013-01-13 10:22:00,12.0,7.0,-100.00,NNW,337,0.0,3.0,79,0.00,,,0.00,24.000000,,2013-01-13 18:22:00,
2013-01-13 10:32:00,12.0,7.0,-100.00,NNW,337,0.0,3.0,79,0.00,,,0.00,24.000000,,2013-01-13 18:32:00,
2013-01-13 10:53:00,15.0,7.0,-100.00,NNW,337,1.0,4.0,71,0.00,,,0.00,40.000000,,2013-01-13 18:53:00,
2013-01-13 11:02:00,15.0,7.0,-100.00,NNW,337,1.0,4.0,71,0.00,,,0.00,40.000000,,2013-01-13 19:02:00,
2013-01-13 11:12:00,15.0,7.0,-100.00,NNW,337,1.0,4.0,71,0.00,,,0.00,40.000000,,2013-01-13 19:12:00,
2013-01-13 11:22:00,15.0,7.0,-100.00,NNW,337,1.0,4.0,71,0.00,,,0.00,40.000000,,2013-01-13 19:22:00,
2013-01-13 11:32:00,15.0,7.0,-100.00,NNW,337,1.0,4.0,71,0.00,,,0.00,40.000000,,2013-01-13 19:32:00,
2013-01-13 11:53:00,20.0,8.0,-100.00,NNW,337,1.0,4.0,60,0.00,,,0.00,134.000000,,2013-01-13 19:53:00,
2013-01-13 12:02:00,20.0,8.0,-100.00,NNW,337,1.0,4.0,60,0.00,,,0.00,134.000000,,2013-01-13 20:02:00,
2013-01-13 12:12:00,20.0,8.0,-100.00,NNW,337,1.0,4.0,60,0.00,,,0.00,134.000000,,2013-01-13 20:12:00,
2013-01-13 12:22:00,20.0,8.0,-100.00,NNW,337,1.0,4.0,60,0.00,,,0.00,134.000000,,2013-01-13 20:22:00,
2013-01-13 12:32:00,20.0,8.0,-100.00,NNW,337,1.0,4.0,60,0.00,,,0.00,134.000000,,2013-01-13 20:32:00,
2013-01-13 12:53:00,24.0,9.0,-100.00,NNW,337,2.0,6.0,53,0.00,,,0.00,303.000000,,2013-01-13 20:53:00,
2013-01-13 13:03:00,24.0,9.0,-100.00,NNW,337,2.0,6.0,53,0.00,,,0.00,303.000000,,2013-01-13 21:03:00,
2013-01-13 13:12:00,24.0,9.0,-100.00,NNW,337,2.0,6.0,53,0.00,,,0.00,303.000000,,2013-01-13 21:12:00,
2013-01-13 13:22:00,24.0,9.0,-100.00,NNW,337,2.0,6.0,53,0.00,,,0.00,303.000000,,2013-01-13 21:22:00,
2013-01-13 13:32:00,24.0,9.0,-100.00,NNW,337,2.0,6.0,53,0.00,,,0.00,303.000000,,2013-01-13 21:32:00,
2013-01-13 13:53:00,23.0,10.0,-100.00,NNW,337,2.0,6.0,57,0.00,,,0.00,271.000000,,2013-01-13 21:53:00,
2013-01-13 14:02:00,23.0,10.0,-100.00,NNW,337,2.0,6.0,57,0.00,,,0.00,271.000000,,2013-01-13 22:02:00,
2013-01-13 14:12:00,23.0,10.0,-100.00,NNW,337,2.0,6.0,57,0.00,,,0.00,271.000000,,2013-01-13 22:12:00,
2013-01-13 14:22:00,23.0,10.0,-100.00,NNW,337,2.0,6.0,57,0.00,,,0.00,271.000000,,2013-01-13 22:22:00,
2013-01-13 14:33:00,23.0,10.0,-100.00,NNW,337,2.0,6.0,57,0.00,,,0.00,271.000000,,2013-01-13 22:33:00,
2013-01-13 14:52:00,23.0,9.0,-100.00,NNW,337,2.0,5.0,55,0.00,,,0.00,235.000000,,2013-01-13 22:52:00,
2013-01-13 15:02:00,23.0,9.0,-100.00,NNW,337,2.0,5.0,55,0.00,,,0.00,235.000000,,2013-01-13 23:02:00,
2013-01-13 15:12:00,23.0,9.0,-100.00,NNW,337,2.0,5.0,55,0.00,,,0.00,235.000000,,2013-01-13 23:12:00,
2013-01-13 15:22:00,23.0,9.0,-100.00,NNW,337,2.0,5.0,55,0.00,,,0.00,235.000000,,2013-01-13 23:22:00,
2013-01-13 15:32:00,23.0,9.0,-100.00,NNW,337,2.0,5.0,55,0.00,,,0.00,235.000000,,2013-01-13 23:32:00,
2013-01-13 15:53:00,19.0,10.0,-100.00,NNW,337,1.0,3.0,66,0.00,,,0.00,88.000000,,2013-01-13 23:53:00,
2013-01-13 16:02:00,19.0,10.0,-100.00,NNW,337,1.0,3.0,66,0.00,,,0.00,88.000000,,2013-01-14 00:02:00,
2013-01-13 16:12:00,19.0,10.0,-100.00,NNW,337,1.0,3.0,66,0.00,,,0.00,88.000000,,2013-01-14 00:12:00,
2013-01-13 16:22:00,19.0,10.0,-100.00,NNW,337,1.0,3.0,66,0.00,,,0.00,88.000000,,2013-01-14 00:22:00,
2013-01-13 16:32:00,19.0,10.0,-100.00,NNW,337,1.0,3.0,66,0.00,,,0.00,88.000000,,2013-01-14 00:32:00,
2013-01-13 16:53:00,14.0,8.0,-100.00,NNW,337,1.0,2.0,76,0.00,,,0.00,26.000000,,2013-01-14 00:53:00,
2013-01-13 17:02:00,14.0,8.0,-100.00,NNW,337,1.0,2.0,76,0.00,,,0.00,26.000000,,2013-01-14 01:02:00,
2013-01-13 17:12:00,14.0,8.0,-100.00,NNW,337,1.0,2.0,76,0.00,,,0.00,26.000000,,2013-01-14 01:12:00,
2013-01-13 17:22:00,14.0,8.0,-100.00,NNW,337,1.0,2.0,76,0.00,,,0.00,26.000000,,2013-01-14 01:22:00,
2013-01-13 17:52:00,10.0,6.0,-100.00,NNW,337,0.0,2.0,84,0.00,,,0.00,1.000000,,2013-01-14 01:52:00,
2013-01-13 18:02:00,10.0,6.0,-100.00,NNW,337,0.0,2.0,84,0.00,,,0.00,1.000000,,2013-01-14 02:02:00,
2013-01-13 18:53:00,12.0,7.0,-100.00,NNW,337,1.0,2.0,80,-99.99,,,0.00,0.000000,,2013-01-14 02:53:00,
2013-01-13 19:02:00,12.0,7.0,-100.00,NNW,337,1.0,2.0,80,-99.99,,,0.00,0.000000,,2013-01-14 03:02:00,
2013-01-13 19:12:00,12.0,7.0,-100.00,NNW,337,1.0,2.0,80,-99.99,,,0.00,0.000000,,2013-01-14 03:12:00,
2013-01-13 19:22:00,12.0,7.0,-100.00,NNW,337,1.0,2.0,80,-99.99,,,0.00,0.000000,,2013-01-14 03:22:00,
2013-01-13 19:32:00,12.0,7.0,-100.00,NNW,337,1.0,2.0,80,-99.99,,,0.00,0.000000,,2013-01-14 03:32:00,
2013-01-13 19:53:00,14.0,8.0,-100.00,NNW,337,1.0,2.0,78,0.00,,,0.00,0.000000,,2013-01-14 03:53:00,
2013-01-13 20:02:00,14.0,8.0,-100.00,NNW,337,1.0,2.0,78,0.00,,,0.00,0.000000,,2013-01-14 04:02:00,
2013-01-13 20:12:00,14.0,8.0,-100.00,NNW,337,1.0,2.0,78,0.00,,,0.00,0.000000,,2013-01-14 04:12:00,
2013-01-13 20:22:00,14.0,8.0,-100.00,NNW,337,1.0,2.0,78,0.00,,,0.00,0.000000,,2013-01-14 04:22:00,
2013-01-13 20:32:00,14.0,8.0,-100.00,NNW,337,1.0,2.0,78,0.00,,,0.00,0.000000,,2013-01-14 04:32:00,
2013-01-13 20:53:00,15.0,8.0,-100.00,NNW,337,0.0,2.0,73,0.00,,,0.00,0.000000,,2013-01-14 04:53:00,
2013-01-13 21:03:00,15.0,8.0,-100.00,NNW,337,0.0,2.0,73,0.00,,,0.00,0.000000,,2013-01-14 05:03:00,
2013-01-13 21:32:00,15.0,8.0,-100.00,NNW,337,0.0,2.0,73,0.00,,,0.00,0.000000,,2013-01-14 05:32:00,
2013-01-13 21:53:00,15.0,8.0,-100.00,NNW,337,1.0,3.0,74,0.00,,,0.00,0.000000,,2013-01-14 05:53:00,
2013-01-13 22:02:00,15.0,8.0,-100.00,NNW,337,1.0,3.0,74,0.00,,,0.00,0.000000,,2013-01-14 06:02:00,
2013-01-13 22:12:00,15.0,8.0,-100.00,NNW,337,1.0,3.0,74,0.00,,,0.00,0.000000,,2013-01-14 06:12:00,
2013-01-13 22:22:00,15.0,8.0,-100.00,NNW,337,1.0,3.0,74,0.00,,,0.00,0.000000,,2013-01-14 06:22:00,
2013-01-13 22:32:00,15.0,8.0,-100.00,NNW,337,1.0,3.0,74,0.00,,,0.00,0.000000,,2013-01-14 06:32:00,
2013-01-13 22:53:00,16.0,9.0,-100.00,NNW,337,1.0,3.0,72,0.00,,,0.00,0.000000,,2013-01-14 06:53:00,
2013-01-13 23:02:00,16.0,9.0,-100.00,NNW,337,1.0,3.0,72,0.00,,,0.00,0.000000,,2013-01-14 07:02:00,
2013-01-13 23:12:00,16.0,9.0,-100.00,NNW,337,1.0,3.0,72,0.00,,,0.00,0.000000,,2013-01-14 07:12:00,
2013-01-13 23:22:00,16.0,9.0,-100.00,NNW,337,1.0,3.0,72,0.00,,,0.00,0.000000,,2013-01-14 07:22:00,
2013-01-13 23:32:00,16.0,9.0,-100.00,NNW,337,1.0,3.0,72,0.00,,,0.00,0.000000,,2013-01-14 07:32:00,
2013-01-13 23:53:00,18.0,9.0,-100.00,NNW,337,0.0,3.0,68,0.00,,,0.00,0.000000,,2013-01-14 07:53:00,